createdAt,value
2022-11-19T00:02:01.549Z,21.90
2022-11-19T00:04:30.932Z,17.83
2022-11-19T00:06:59.093Z,20.67
2022-11-19T00:09:27.154Z,22.60
2022-11-19T00:12:12.520Z,22.97
2022-11-19T00:14:40.585Z,25.00
2022-11-19T00:17:08.571Z,21.97
2022-11-19T00:19:37.955Z,20.70
2022-11-19T00:22:05.989Z,20.27
2022-11-19T00:24:34.124Z,23.40
2022-11-19T00:27:02.120Z,21.47
2022-11-19T00:29:30.880Z,18.57
2022-11-19T00:31:58.925Z,20.33
2022-11-19T00:34:26.996Z,21.60
2022-11-19T00:36:56.420Z,20.60
2022-11-19T00:39:24.748Z,20.37
2022-11-19T00:41:52.813Z,19.27
2022-11-19T00:44:20.879Z,21.83
2022-11-19T00:46:48.833Z,23.40
2022-11-19T00:49:17.062Z,21.97
2022-11-19T00:51:45.140Z,23.80
2022-11-19T00:54:14.652Z,23.20
2022-11-19T00:56:42.711Z,22.33
2022-11-19T00:59:10.826Z,21.47
2022-11-19T01:01:39.080Z,24.93
2022-11-19T01:04:07.231Z,25.73
2022-11-19T01:06:35.300Z,21.77
2022-11-19T01:09:03.857Z,21.97
2022-11-19T01:11:35.496Z,22.27
2022-11-19T01:14:04.801Z,22.03
2022-11-19T01:16:34.759Z,21.53
2022-11-19T01:19:02.954Z,20.40
2022-11-19T01:21:33.683Z,19.20
2022-11-19T01:24:02.445Z,24.77
2022-11-19T01:26:30.653Z,23.27
2022-11-19T01:29:00.226Z,22.17
2022-11-19T01:31:29.989Z,23.83
2022-11-19T01:33:59.390Z,18.17
2022-11-19T01:36:29.508Z,19.77
2022-11-19T01:38:59.054Z,21.67
2022-11-19T01:41:28.700Z,22.33
2022-11-19T01:44:00.561Z,19.57
2022-11-19T01:46:30.577Z,19.47
2022-11-19T01:49:02.854Z,21.37
2022-11-19T01:51:33.896Z,19.60
2022-11-19T01:54:06.164Z,19.53
2022-11-19T01:56:34.426Z,20.00
2022-11-19T01:59:09.215Z,22.33
2022-11-19T02:01:37.340Z,26.87
2022-11-19T02:04:07.358Z,26.77
2022-11-19T02:06:35.924Z,21.50
2022-11-19T02:09:03.861Z,25.87
2022-11-19T02:12:03.170Z,23.20
2022-11-19T02:14:53.462Z,25.10
2022-11-19T02:17:32.461Z,21.90
2022-11-19T02:20:37.944Z,25.00
2022-11-19T02:23:32.285Z,25.53
2022-11-19T02:26:30.555Z,20.53
2022-11-19T02:29:07.480Z,23.27
2022-11-19T02:31:43.032Z,19.87
2022-11-19T02:34:16.700Z,22.90
2022-11-19T02:36:48.610Z,22.93
2022-11-19T02:39:22.037Z,21.17
2022-11-19T02:41:56.243Z,24.63
2022-11-19T02:44:55.750Z,19.53
2022-11-19T02:47:30.073Z,21.97
2022-11-19T02:50:03.015Z,22.20
2022-11-19T02:52:31.457Z,22.87
2022-11-19T02:54:59.432Z,19.37
2022-11-19T02:57:27.500Z,21.40
2022-11-19T03:00:17.269Z,21.20
2022-11-19T03:03:10.692Z,23.50
2022-11-19T03:05:42.847Z,23.70
2022-11-19T03:08:11.038Z,22.93
2022-11-19T03:10:46.982Z,22.23
2022-11-19T03:13:36.101Z,21.33
2022-11-19T03:16:26.899Z,22.17
2022-11-19T03:19:00.588Z,19.47
2022-11-19T03:21:36.138Z,24.03
2022-11-19T03:24:09.187Z,21.70
2022-11-19T03:26:41.526Z,21.83
2022-11-19T03:29:13.730Z,21.53
2022-11-19T03:31:47.980Z,23.67
2022-11-19T03:34:20.736Z,19.47
2022-11-19T03:36:51.753Z,21.30
2022-11-19T03:39:21.808Z,19.10
2022-11-19T03:41:52.316Z,21.83
2022-11-19T03:44:25.295Z,19.87
2022-11-19T03:46:59.490Z,21.27
2022-11-19T03:49:33.014Z,19.60
2022-11-19T03:52:05.483Z,21.17
2022-11-19T03:54:33.632Z,19.63
2022-11-19T03:57:03.602Z,22.17
2022-11-19T03:59:32.123Z,19.30
2022-11-19T04:02:04.352Z,19.83
2022-11-19T04:04:37.018Z,23.37
2022-11-19T04:07:06.880Z,19.60
2022-11-19T04:09:35.273Z,22.60
2022-11-19T04:12:04.226Z,24.83
2022-11-19T04:14:32.345Z,23.47
2022-11-19T04:17:00.437Z,21.83
2022-11-19T04:19:28.450Z,25.73
2022-11-19T04:21:57.832Z,29.00
2022-11-19T04:24:25.837Z,25.13
2022-11-19T04:26:54.061Z,27.57
2022-11-19T04:29:22.310Z,22.90
2022-11-19T04:31:50.799Z,23.30
2022-11-19T04:34:19.147Z,24.70
2022-11-19T04:36:47.348Z,25.70
2022-11-19T04:39:17.072Z,23.47
2022-11-19T04:41:45.329Z,25.80
2022-11-19T04:44:13.295Z,25.87
2022-11-19T04:46:41.337Z,26.87
2022-11-19T04:49:09.469Z,27.43
2022-11-19T04:51:37.692Z,29.13
2022-11-19T04:54:08.580Z,28.37
2022-11-19T04:56:38.389Z,30.37
2022-11-19T04:59:06.472Z,26.87
2022-11-19T05:01:34.645Z,33.13
2022-11-19T05:04:02.659Z,29.10
2022-11-19T05:06:30.718Z,31.57
2022-11-19T05:08:58.730Z,31.07
2022-11-19T05:11:26.953Z,32.47
2022-11-19T05:13:56.322Z,27.10
2022-11-19T05:16:24.347Z,29.30
2022-11-19T05:18:52.416Z,29.63
2022-11-19T05:21:20.472Z,28.27
2022-11-19T05:23:48.426Z,32.20
2022-11-19T05:26:16.532Z,33.47
2022-11-19T05:28:44.520Z,32.77
2022-11-19T05:31:13.974Z,31.90
2022-11-19T05:33:41.979Z,29.63
2022-11-19T05:36:10.569Z,31.13
2022-11-19T05:38:38.530Z,34.17
2022-11-19T05:41:06.854Z,33.20
2022-11-19T05:43:34.864Z,26.90
2022-11-19T05:46:03.506Z,29.20
2022-11-19T05:48:32.893Z,32.20
2022-11-19T05:51:00.946Z,33.60
2022-11-19T05:53:28.895Z,30.83
2022-11-19T05:55:57.081Z,32.63
2022-11-19T05:58:37.058Z,28.80
2022-11-19T06:01:06.175Z,30.67
2022-11-19T06:03:35.508Z,31.57
2022-11-19T06:06:03.630Z,32.70
2022-11-19T06:08:31.698Z,28.97
2022-11-19T06:11:02.610Z,30.93
2022-11-19T06:13:30.644Z,34.07
2022-11-19T06:15:58.688Z,35.70
2022-11-19T06:18:26.742Z,31.40
2022-11-19T06:20:56.057Z,30.73
2022-11-19T06:23:24.250Z,27.20
2022-11-19T06:25:54.844Z,31.93
2022-11-19T06:28:22.904Z,31.73
2022-11-19T06:30:50.922Z,32.87
2022-11-19T06:33:18.905Z,29.23
2022-11-19T06:35:46.908Z,35.57
2022-11-19T06:38:16.363Z,32.27
2022-11-19T06:40:46.069Z,30.70
2022-11-19T06:43:14.211Z,34.03
2022-11-19T06:45:42.208Z,36.73
2022-11-19T06:48:10.317Z,34.13
2022-11-19T06:50:38.401Z,31.00
2022-11-19T06:53:06.451Z,35.93
2022-11-19T06:55:35.860Z,35.53
2022-11-19T06:58:04.690Z,35.40
2022-11-19T07:00:33.081Z,33.90
2022-11-19T07:03:01.165Z,32.73
2022-11-19T07:05:29.263Z,32.33
2022-11-19T07:08:02.648Z,31.70
2022-11-19T07:10:31.741Z,33.90
2022-11-19T07:13:01.304Z,32.57
2022-11-19T07:15:29.442Z,29.43
2022-11-19T07:17:57.444Z,33.77
2022-11-19T07:20:25.545Z,33.77
2022-11-19T07:22:57.788Z,32.20
2022-11-19T07:25:27.489Z,34.00
2022-11-19T07:27:55.529Z,33.73
2022-11-19T07:30:25.010Z,33.73
2022-11-19T07:32:54.754Z,31.57
2022-11-19T07:35:22.877Z,30.93
2022-11-19T07:37:50.850Z,39.33
2022-11-19T07:40:19.030Z,30.80
2022-11-19T07:42:53.226Z,32.30
2022-11-19T07:45:23.462Z,32.73
2022-11-19T07:47:52.816Z,33.70
2022-11-19T07:50:20.912Z,34.60
2022-11-19T07:52:48.967Z,34.87
2022-11-19T07:55:17.227Z,35.03
2022-11-19T07:57:45.215Z,35.23
2022-11-19T08:00:14.673Z,37.43
2022-11-19T08:02:43.104Z,38.50
2022-11-19T08:05:12.758Z,36.13
2022-11-19T08:07:41.427Z,31.23
2022-11-19T08:10:11.432Z,29.80
2022-11-19T08:12:39.457Z,30.40
2022-11-19T08:15:08.863Z,38.30
2022-11-19T08:17:54.621Z,31.33
2022-11-19T08:20:24.180Z,29.23
2022-11-19T08:22:53.188Z,32.97
2022-11-19T08:25:21.261Z,32.77
2022-11-19T08:27:49.256Z,33.50
2022-11-19T08:30:17.773Z,31.87
2022-11-19T08:32:45.769Z,32.67
2022-11-19T08:35:13.868Z,31.03
2022-11-19T08:37:43.203Z,32.13
2022-11-19T08:40:11.919Z,33.70
2022-11-19T08:42:57.841Z,35.30
2022-11-19T08:45:26.941Z,33.30
2022-11-19T08:47:55.148Z,33.33
2022-11-19T08:50:24.426Z,32.93
2022-11-19T08:52:58.556Z,29.30
2022-11-19T08:55:27.939Z,33.47
2022-11-19T08:58:00.982Z,36.40
2022-11-19T09:00:29.959Z,34.87
2022-11-19T09:02:57.988Z,33.80
2022-11-19T09:05:26.093Z,36.57
2022-11-19T09:07:57.250Z,36.33
2022-11-19T09:10:25.500Z,34.60
2022-11-19T09:12:53.985Z,33.70
2022-11-19T09:15:22.220Z,36.87
2022-11-19T09:17:50.254Z,28.03
2022-11-19T09:20:18.625Z,30.03
2022-11-19T09:23:03.421Z,31.70
2022-11-19T09:25:31.579Z,29.17
2022-11-19T09:27:59.589Z,30.30
2022-11-19T09:30:27.739Z,28.07
2022-11-19T09:32:55.734Z,29.07
2022-11-19T09:35:23.870Z,27.77
2022-11-19T09:37:51.877Z,25.87
2022-11-19T09:40:23.773Z,31.23
2022-11-19T09:43:05.226Z,31.23
2022-11-19T09:45:48.742Z,30.80
2022-11-19T09:48:27.644Z,30.07
2022-11-19T09:51:00.129Z,34.37
2022-11-19T09:53:32.307Z,32.40
2022-11-19T09:56:01.971Z,33.23
2022-11-19T09:58:37.625Z,32.50
2022-11-19T10:01:06.302Z,30.37
2022-11-19T10:03:34.498Z,30.97
2022-11-19T10:06:21.239Z,30.20
2022-11-19T10:09:13.518Z,28.73
2022-11-19T10:11:56.598Z,28.73
2022-11-19T10:14:44.545Z,32.53
2022-11-19T10:17:22.275Z,26.13
2022-11-19T10:20:09.679Z,28.90
2022-11-19T10:22:46.922Z,24.37
2022-11-19T10:25:18.669Z,26.47
2022-11-19T10:27:52.215Z,29.67
2022-11-19T10:30:22.331Z,28.10
2022-11-19T10:32:58.294Z,31.20
2022-11-19T10:35:31.042Z,29.63
2022-11-19T10:38:02.324Z,34.27
2022-11-19T10:40:37.993Z,33.10
2022-11-19T10:43:23.195Z,30.73
2022-11-19T10:45:51.838Z,28.73
2022-11-19T10:48:23.159Z,31.50
2022-11-19T10:50:51.800Z,29.63
2022-11-19T10:53:26.074Z,33.83
2022-11-19T10:55:58.214Z,29.33
2022-11-19T10:58:30.780Z,29.07
2022-11-19T11:01:02.287Z,32.17
2022-11-19T11:03:35.461Z,26.70
2022-11-19T11:06:06.516Z,27.70
2022-11-19T11:08:34.857Z,30.17
2022-11-19T11:11:02.931Z,25.70
2022-11-19T11:13:58.300Z,23.43
2022-11-19T11:16:31.562Z,26.23
2022-11-19T11:19:01.921Z,25.67
2022-11-19T11:21:33.931Z,23.97
2022-11-19T11:24:04.637Z,25.60
2022-11-19T11:26:37.940Z,22.73
2022-11-19T11:29:24.644Z,24.67
2022-11-19T11:31:52.908Z,30.50
2022-11-19T11:34:31.187Z,25.97
2022-11-19T11:37:01.908Z,23.53
2022-11-19T11:39:32.219Z,22.50
2022-11-19T11:42:05.813Z,27.60
2022-11-19T11:44:37.928Z,22.53
2022-11-19T11:47:13.510Z,24.20
2022-11-19T11:49:44.088Z,23.43
2022-11-19T11:52:19.154Z,23.83
2022-11-19T11:54:59.044Z,20.30
2022-11-19T11:57:29.221Z,30.50
2022-11-19T11:59:58.905Z,22.93
2022-11-19T12:02:31.184Z,23.87
2022-11-19T12:05:02.785Z,20.97
2022-11-19T12:08:00.974Z,20.60
2022-11-19T12:10:35.931Z,22.80
2022-11-19T12:13:27.204Z,20.43
2022-11-19T12:16:04.488Z,20.30
2022-11-19T12:18:40.264Z,20.43
2022-11-19T12:21:12.002Z,19.87
2022-11-19T12:23:58.881Z,21.43
2022-11-19T12:26:33.818Z,22.67
2022-11-19T12:29:18.106Z,24.43
2022-11-19T12:32:02.712Z,19.77
2022-11-19T12:34:56.146Z,22.90
2022-11-19T12:37:39.587Z,24.30
2022-11-19T12:40:21.267Z,22.37
2022-11-19T12:42:57.718Z,21.60
2022-11-19T12:45:38.590Z,21.10
2022-11-19T12:48:32.322Z,24.13
2022-11-19T12:51:07.329Z,22.63
2022-11-19T12:53:53.383Z,20.87
2022-11-19T12:56:37.367Z,21.57
2022-11-19T12:59:21.733Z,20.63
2022-11-19T13:01:53.377Z,22.63
2022-11-19T13:04:29.258Z,20.37
2022-11-19T13:07:02.603Z,21.63
2022-11-19T13:09:39.725Z,21.50
2022-11-19T13:12:10.779Z,25.07
2022-11-19T13:14:41.159Z,21.07
2022-11-19T13:17:18.456Z,26.97
2022-11-19T13:19:53.549Z,27.30
2022-11-19T13:22:27.194Z,24.60
2022-11-19T13:24:59.682Z,22.03
2022-11-19T13:27:29.851Z,19.77
2022-11-19T13:30:02.803Z,19.90
2022-11-19T13:32:39.196Z,19.90
2022-11-19T13:35:23.698Z,20.63
2022-11-19T13:37:58.919Z,22.70
2022-11-19T13:40:31.873Z,22.53
2022-11-19T13:43:31.487Z,23.53
2022-11-19T13:46:07.906Z,23.13
2022-11-19T13:48:40.723Z,22.17
2022-11-19T13:51:22.791Z,25.13
2022-11-19T13:53:51.215Z,22.63
2022-11-19T13:56:20.201Z,21.57
2022-11-19T13:58:50.621Z,25.57
2022-11-19T14:01:36.279Z,24.07
2022-11-19T14:04:27.983Z,23.97
2022-11-19T14:07:18.428Z,23.10
2022-11-19T14:09:55.314Z,20.13
2022-11-19T14:12:41.687Z,19.70
2022-11-19T14:15:45.344Z,20.93
2022-11-19T14:18:42.467Z,22.47
2022-11-19T14:21:59.751Z,27.57
2022-11-19T14:25:12.549Z,22.40
2022-11-19T14:27:40.969Z,24.10
2022-11-19T14:30:11.790Z,27.80
2022-11-19T14:32:49.144Z,24.07
2022-11-19T14:35:34.429Z,24.00
2022-11-19T14:38:28.353Z,26.10
2022-11-19T14:41:06.052Z,20.23
2022-11-19T14:44:08.016Z,24.63
2022-11-19T14:46:37.353Z,25.23
2022-11-19T14:49:24.337Z,29.97
2022-11-19T14:51:55.387Z,24.00
2022-11-19T14:54:47.028Z,22.67
2022-11-19T14:57:28.609Z,30.10
2022-11-19T15:00:01.316Z,27.10
2022-11-19T15:02:35.473Z,28.10
2022-11-19T15:05:08.858Z,25.90
2022-11-19T15:07:41.000Z,24.47
2022-11-19T15:10:32.048Z,26.60
2022-11-19T15:13:21.530Z,27.93
2022-11-19T15:15:54.578Z,26.00
2022-11-19T15:18:49.705Z,24.60
2022-11-19T15:21:42.025Z,26.17
2022-11-19T15:24:28.741Z,22.30
2022-11-19T15:27:05.568Z,26.47
2022-11-19T15:30:05.106Z,23.43
2022-11-19T15:32:46.573Z,26.13
2022-11-19T15:35:55.167Z,28.87
2022-11-19T15:38:31.312Z,25.90
2022-11-19T15:41:02.156Z,31.90
2022-11-19T15:43:38.601Z,28.87
2022-11-19T15:46:12.412Z,26.77
2022-11-19T15:48:48.930Z,28.43
2022-11-19T15:51:18.872Z,28.83
2022-11-19T15:53:59.995Z,28.40
2022-11-19T15:56:30.366Z,30.30
2022-11-19T15:58:58.819Z,30.47
2022-11-19T16:01:29.365Z,30.83
2022-11-19T16:03:57.737Z,27.13
2022-11-19T16:06:29.132Z,30.30
2022-11-19T16:09:35.332Z,30.20
2022-11-19T16:12:40.585Z,32.53
2022-11-19T16:15:41.860Z,31.10
2022-11-19T16:18:19.208Z,36.20
2022-11-19T16:20:50.181Z,33.63
2022-11-19T16:23:20.656Z,36.87
2022-11-19T16:25:49.493Z,40.87
2022-11-19T16:28:21.086Z,39.27
2022-11-19T16:30:50.837Z,39.70
2022-11-19T16:33:21.954Z,39.67
2022-11-19T16:35:53.217Z,42.00
2022-11-19T16:38:27.467Z,43.10
2022-11-19T16:41:14.346Z,38.83
2022-11-19T16:43:44.250Z,38.43
2022-11-19T16:46:16.738Z,44.10
2022-11-19T16:48:57.861Z,44.47
2022-11-19T16:51:38.702Z,42.73
2022-11-19T16:54:09.213Z,40.13
2022-11-19T16:56:41.997Z,38.00
2022-11-19T16:59:19.066Z,37.03
2022-11-19T17:01:53.659Z,35.87
2022-11-19T17:04:25.121Z,37.57
2022-11-19T17:06:53.215Z,39.57
2022-11-19T17:09:33.070Z,41.83
2022-11-19T17:12:19.406Z,41.67
2022-11-19T17:14:53.225Z,44.37
2022-11-19T17:17:40.987Z,46.37
2022-11-19T17:21:00.175Z,42.70
2022-11-19T17:23:35.316Z,42.97
2022-11-19T17:26:06.708Z,40.13
2022-11-19T17:28:41.136Z,47.93
2022-11-19T17:31:17.168Z,47.93
2022-11-19T17:33:56.707Z,39.43
2022-11-19T17:36:25.892Z,40.70
2022-11-19T17:38:55.393Z,42.13
2022-11-19T17:41:43.854Z,40.83
2022-11-19T17:44:35.698Z,43.40
2022-11-19T17:47:09.939Z,45.43
2022-11-19T17:49:47.031Z,41.33
2022-11-19T17:52:22.664Z,43.90
2022-11-19T17:54:53.921Z,40.43
2022-11-19T17:57:22.384Z,43.60
2022-11-19T17:59:50.522Z,43.57
2022-11-19T18:02:20.820Z,44.23
2022-11-19T18:04:49.383Z,43.77
2022-11-19T18:07:17.626Z,43.53
2022-11-19T18:09:45.945Z,44.23
2022-11-19T18:12:17.179Z,39.10
2022-11-19T18:14:46.224Z,39.70
2022-11-19T18:17:15.672Z,45.60
2022-11-19T18:19:43.976Z,43.27
2022-11-19T18:22:21.365Z,43.33
2022-11-19T18:24:50.561Z,45.37
2022-11-19T18:27:19.961Z,50.77
2022-11-19T18:29:47.993Z,54.03
2022-11-19T18:32:16.998Z,50.83
2022-11-19T18:34:45.999Z,51.63
2022-11-19T18:37:14.218Z,54.30
2022-11-19T18:39:43.781Z,55.30
2022-11-19T18:42:14.337Z,50.37
2022-11-19T18:44:43.626Z,47.07
2022-11-19T18:47:13.677Z,49.50
2022-11-19T18:49:42.570Z,49.30
2022-11-19T18:52:14.998Z,49.30
2022-11-19T18:54:43.394Z,51.67
2022-11-19T18:57:12.359Z,51.00
2022-11-19T18:59:41.359Z,52.07
2022-11-19T19:02:11.985Z,48.23
2022-11-19T19:04:40.200Z,47.93
2022-11-19T19:07:10.989Z,47.63
2022-11-19T19:09:39.078Z,50.87
2022-11-19T19:12:20.230Z,49.13
2022-11-19T19:14:51.681Z,49.70
2022-11-19T19:17:21.315Z,55.50
2022-11-19T19:19:50.132Z,56.63
2022-11-19T19:22:18.632Z,49.10
2022-11-19T19:24:47.032Z,51.00
2022-11-19T19:27:15.789Z,55.00
2022-11-19T19:29:44.237Z,55.67
2022-11-19T19:32:12.405Z,51.20
2022-11-19T19:34:41.768Z,53.67
2022-11-19T19:37:09.915Z,62.50
2022-11-19T19:39:37.924Z,52.63
2022-11-19T19:42:06.232Z,63.83
2022-11-19T19:44:34.413Z,60.67
2022-11-19T19:47:02.548Z,55.83
2022-11-19T19:49:34.605Z,60.80
2022-11-19T19:52:07.217Z,58.53
2022-11-19T19:54:35.252Z,64.80
2022-11-19T19:57:03.359Z,72.87
2022-11-19T19:59:31.609Z,71.07
2022-11-19T20:01:59.757Z,76.87
2022-11-19T20:04:28.057Z,74.40
2022-11-19T20:06:56.414Z,77.37
2022-11-19T20:09:26.128Z,98.30
2022-11-19T20:11:54.521Z,89.93
2022-11-19T20:14:22.595Z,84.17
2022-11-19T20:16:51.739Z,78.83
2022-11-19T20:19:19.729Z,87.67
2022-11-19T20:21:47.875Z,88.77
2022-11-19T20:24:17.388Z,80.50
2022-11-19T20:26:46.974Z,83.30
2022-11-19T20:29:17.610Z,84.07
2022-11-19T20:31:47.769Z,78.73
2022-11-19T20:34:16.398Z,83.23
2022-11-19T20:36:44.892Z,86.83
2022-11-19T20:39:13.726Z,80.90
2022-11-19T20:41:59.674Z,79.87
2022-11-19T20:44:29.087Z,85.30
2022-11-19T20:46:58.330Z,95.93
2022-11-19T20:49:28.189Z,85.17
2022-11-19T20:51:57.131Z,97.73
2022-11-19T20:54:25.742Z,83.87
2022-11-19T20:56:55.177Z,87.80
2022-11-19T20:59:23.975Z,88.07
2022-11-19T21:01:54.701Z,87.93
2022-11-19T21:04:27.365Z,95.50
2022-11-19T21:06:55.517Z,95.03
2022-11-19T21:09:24.062Z,95.77
2022-11-19T21:11:52.564Z,92.53
2022-11-19T21:14:20.751Z,91.33
2022-11-19T21:16:49.034Z,88.53
2022-11-19T21:19:19.179Z,90.07
2022-11-19T21:21:47.546Z,82.83
2022-11-19T21:24:15.694Z,83.20
2022-11-19T21:26:43.808Z,81.20
2022-11-19T21:29:12.608Z,83.27
2022-11-19T21:31:42.291Z,77.77
2022-11-19T21:34:12.250Z,84.83
2022-11-19T21:36:43.408Z,82.57
2022-11-19T21:39:13.990Z,85.53
2022-11-19T21:41:42.443Z,75.13
2022-11-19T21:44:11.074Z,75.97
2022-11-19T21:46:39.795Z,75.90
2022-11-19T21:49:07.761Z,67.70
2022-11-19T21:51:35.846Z,76.17
2022-11-19T21:54:05.952Z,73.03
2022-11-19T21:56:38.469Z,72.73
2022-11-19T21:59:07.737Z,64.13
2022-11-19T22:01:36.393Z,66.77
2022-11-19T22:04:04.686Z,65.40
2022-11-19T22:06:33.158Z,67.00
2022-11-19T22:09:01.326Z,68.37
2022-11-19T22:11:31.024Z,72.33
2022-11-19T22:14:01.530Z,66.77
2022-11-19T22:16:29.997Z,69.33
2022-11-19T22:18:58.115Z,65.80
2022-11-19T22:21:27.518Z,65.60
2022-11-19T22:23:55.653Z,66.63
2022-11-19T22:26:23.653Z,66.97
2022-11-19T22:28:53.140Z,71.33
2022-11-19T22:31:25.736Z,68.07
2022-11-19T22:33:55.034Z,71.43
2022-11-19T22:36:24.261Z,67.70
2022-11-19T22:38:53.034Z,69.83
2022-11-19T22:41:22.340Z,65.10
2022-11-19T22:43:52.324Z,65.87
2022-11-19T22:46:21.313Z,71.10
2022-11-19T22:48:49.706Z,66.97
2022-11-19T22:51:25.250Z,73.10
2022-11-19T22:53:57.192Z,67.63
2022-11-19T22:56:27.407Z,66.20
2022-11-19T22:58:57.543Z,65.77
2022-11-19T23:01:27.787Z,64.90
2022-11-19T23:03:56.618Z,66.47
2022-11-19T23:06:25.298Z,72.67
2022-11-19T23:08:53.934Z,65.83
2022-11-19T23:12:08.222Z,71.80
2022-11-19T23:14:37.612Z,66.90
2022-11-19T23:17:05.780Z,65.20
2022-11-19T23:19:33.856Z,63.83
2022-11-19T23:22:01.824Z,66.93
2022-11-19T23:24:29.928Z,68.30
2022-11-19T23:26:57.920Z,69.30
2022-11-19T23:29:25.939Z,63.33
2022-11-19T23:31:55.252Z,71.50
2022-11-19T23:34:23.312Z,66.23
2022-11-19T23:36:51.266Z,62.13
2022-11-19T23:39:19.920Z,67.67
2022-11-19T23:41:48.170Z,69.23
2022-11-19T23:44:16.193Z,65.63
2022-11-19T23:46:44.180Z,61.70
2022-11-19T23:49:13.806Z,74.10
2022-11-19T23:51:41.943Z,68.37
2022-11-19T23:54:13.091Z,71.87
2022-11-19T23:56:41.248Z,62.27
2022-11-19T23:59:09.234Z,71.13
